Time;durP1;ratioP1;P1;durP2;ratioP2;P2;SDS_P1;SDS_P2;PMS_P1;PMS_P2;Temp;Humidity;BMP_temperature;BMP_pressure;BME280_temperature;BME280_humidity;BME280_pressure;Samples;Min_cycle;Max_cycle;Signal;HPM_P1;HPM_P2
2021/05/15 00:00:42;;;;;;;8.13;4.60;;;;;;;15.26;61.66;99407.73;1696120;83;20346;-64
2021/05/15 00:03:09;;;;;;;6.45;4.37;;;;;;;15.24;61.77;99403.84;1696202;83;21881;-66
2021/05/15 00:05:35;;;;;;;8.70;4.47;;;;;;;15.22;61.99;99404.65;1696018;84;21070;-66
2021/05/15 00:08:04;;;;;;;8.38;4.62;;;;;;;15.17;62.32;99395.75;1695896;83;21341;-65
2021/05/15 00:10:31;;;;;;;9.85;4.65;;;;;;;15.14;62.52;99401.77;1696053;84;21915;-66
2021/05/15 00:12:59;;;;;;;8.33;4.60;;;;;;;15.13;62.61;99411.68;1696087;84;21229;-66
2021/05/15 00:15:26;;;;;;;9.38;4.40;;;;;;;15.14;62.62;99409.21;1696089;83;21098;-65
2021/05/15 00:17:54;;;;;;;9.40;5.75;;;;;;;15.14;62.64;99410.05;1696101;83;21082;-65
2021/05/15 00:20:21;;;;;;;11.78;5.78;;;;;;;15.16;62.68;99413.93;1695948;84;21200;-64
2021/05/15 00:22:48;;;;;;;9.30;5.47;;;;;;;15.15;62.66;99402.06;1696092;83;21468;-66
2021/05/15 00:25:16;;;;;;;7.87;5.08;;;;;;;15.17;62.72;99404.02;1696088;83;21942;-65
2021/05/15 00:27:43;;;;;;;10.48;5.45;;;;;;;15.17;62.77;99406.78;1696116;84;21168;-64
2021/05/15 00:30:12;;;;;;;10.72;5.10;;;;;;;15.18;62.91;99401.55;1696088;84;21130;-64
2021/05/15 00:32:39;;;;;;;7.78;4.90;;;;;;;15.19;63.01;99403.23;1696140;83;21098;-65
2021/05/15 00:35:08;;;;;;;9.28;5.30;;;;;;;15.15;63.23;99414.48;1695986;84;21325;-66
2021/05/15 00:37:35;;;;;;;7.45;5.00;;;;;;;15.11;63.38;99406.95;1696212;84;21192;-65
2021/05/15 00:40:05;;;;;;;10.65;5.33;;;;;;;15.10;63.45;99401.14;1695821;84;21070;-66
2021/05/15 00:42:33;;;;;;;11.28;5.12;;;;;;;15.08;63.43;99403.32;1695497;84;21328;-65
2021/05/15 00:45:00;;;;;;;12.55;6.22;;;;;;;15.07;63.53;99406.63;1695538;84;21098;-66
2021/05/15 00:47:27;;;;;;;8.00;5.25;;;;;;;15.07;63.65;99404.41;1695351;84;21324;-66
2021/05/15 00:49:54;;;;;;;11.38;5.30;;;;;;;15.06;63.78;99398.05;1695084;84;21208;-65
2021/05/15 00:52:21;;;;;;;7.62;5.10;;;;;;;15.05;63.94;99403.28;1695060;84;21220;-66
2021/05/15 00:54:50;;;;;;;9.53;5.58;;;;;;;15.05;63.98;99410.72;1695019;84;21070;-64
2021/05/15 00:57:17;;;;;;;9.68;4.42;;;;;;;15.02;64.10;99405.16;1695115;84;21256;-66
2021/05/15 00:59:44;;;;;;;7.45;4.10;;;;;;;15.02;64.20;99409.84;1695112;84;21336;-64
2021/05/15 01:02:11;;;;;;;;;;;;;;;15.03;64.46;99404.08;1697244;83;21277;-65
2021/05/15 01:04:39;;;;;;;7.25;4.22;;;;;;;15.07;64.67;99408.00;1694817;83;20291;-66
2021/05/15 01:07:10;;;;;;;5.30;3.72;;;;;;;15.10;64.80;99408.05;1694507;84;21074;-66
2021/05/15 01:09:37;;;;;;;9.03;4.35;;;;;;;15.13;64.85;99414.44;1694600;84;21372;-66
2021/05/15 01:12:06;;;;;;;8.95;5.12;;;;;;;15.13;64.81;99410.30;1694400;84;21340;-64
2021/05/15 01:14:38;;;;;;;11.43;4.75;;;;;;;15.10;64.73;99411.64;1694343;84;21337;-64
2021/05/15 01:17:09;;;;;;;8.98;5.17;;;;;;;15.08;64.75;99411.05;1693981;84;21224;-66
2021/05/15 01:19:37;;;;;;;7.60;4.90;;;;;;;15.05;64.78;99417.07;1694032;84;21082;-65
2021/05/15 01:22:11;;;;;;;7.95;5.10;;;;;;;15.03;64.90;99419.79;1693954;83;21126;-65
2021/05/15 01:24:38;;;;;;;8.00;4.33;;;;;;;14.97;65.06;99418.88;1694214;83;21109;-66
2021/05/15 01:27:10;;;;;;;5.97;4.10;;;;;;;14.95;65.24;99414.66;1694028;84;21085;-65
2021/05/15 01:29:37;;;;;;;8.48;4.72;;;;;;;14.95;65.42;99409.14;1693951;84;21242;-65
2021/05/15 01:32:04;;;;;;;;;;;;;;;14.93;65.55;99416.83;1696403;84;21098;-64
2021/05/15 01:34:31;;;;;;;8.70;4.83;;;;;;;14.90;65.71;99417.62;1694765;83;20212;-65
2021/05/15 01:36:57;;;;;;;;;;;;;;;14.88;65.93;99425.85;1696481;84;21386;-66
2021/05/15 01:39:24;;;;;;;8.53;5.12;;;;;;;14.88;66.12;99418.41;1693842;84;20248;-63
2021/05/15 01:41:52;;;;;;;5.78;4.08;;;;;;;14.88;66.21;99420.34;1693834;84;21205;-65
2021/05/15 01:44:18;;;;;;;9.70;4.05;;;;;;;14.88;66.30;99428.07;1693743;84;21082;-64
2021/05/15 01:46:45;;;;;;;7.72;4.42;;;;;;;14.90;66.36;99419.00;1693620;83;22150;-65
2021/05/15 01:49:12;;;;;;;7.03;4.78;;;;;;;14.92;66.41;99424.27;1693417;84;21054;-65
2021/05/15 01:51:39;;;;;;;;;;;;;;;14.91;66.49;99423.44;1695568;84;21077;-64
2021/05/15 01:54:05;;;;;;;8.80;4.50;;;;;;;14.90;66.62;99419.00;1692579;83;20240;-65
2021/05/15 01:56:32;;;;;;;;;;;;;;;14.89;66.70;99418.70;1694886;84;21204;-65
2021/05/15 01:58:59;;;;;;;6.53;4.33;;;;;;;14.89;66.77;99420.63;1692568;83;20343;-64
2021/05/15 02:01:28;;;;;;;7.08;4.10;;;;;;;14.87;66.83;99425.56;1692251;84;21324;-65
2021/05/15 02:03:55;;;;;;;7.33;4.22;;;;;;;14.87;66.87;99418.12;1668140;84;21923;-65
2021/05/15 02:06:21;;;;;;;;;;;;;;;14.88;66.93;99421.72;1694755;84;21082;-65
2021/05/15 02:08:49;;;;;;;5.95;4.40;;;;;;;14.88;67.00;99428.07;1692412;84;20233;-65
2021/05/15 02:11:16;;;;;;;;;;;;;;;14.91;67.05;99426.73;1694876;84;21293;-65
2021/05/15 02:13:47;;;;;;;6.70;4.83;;;;;;;14.93;67.10;99431.45;1692642;83;20751;-65
2021/05/15 02:16:16;;;;;;;7.33;4.67;;;;;;;14.95;67.06;99431.20;1692474;84;22019;-66
2021/05/15 02:18:45;;;;;;;7.30;4.75;;;;;;;14.96;67.05;99429.61;1693361;83;21054;-64
2021/05/15 02:21:12;;;;;;;7.78;4.90;;;;;;;14.97;67.03;99434.04;1694839;83;21118;-64
2021/05/15 02:23:39;;;;;;;6.45;4.22;;;;;;;14.96;67.05;99435.67;1695734;83;21139;-63
2021/05/15 02:26:06;;;;;;;6.87;4.40;;;;;;;14.97;67.05;99441.48;1695806;84;21145;-64
2021/05/15 02:28:32;;;;;;;;;;;;;;;15.00;66.99;99440.98;1698812;84;21836;-64
2021/05/15 02:30:59;;;;;;;6.75;3.95;;;;;;;14.98;66.97;99441.23;1696010;84;20220;-65
2021/05/15 02:33:26;;;;;;;6.03;3.92;;;;;;;14.94;67.04;99444.16;1696082;83;21096;-65
2021/05/15 02:35:53;;;;;;;7.35;4.03;;;;;;;14.92;67.07;99447.71;1695991;84;21897;-64
2021/05/15 02:38:20;;;;;;;;;;;;;;;14.90;67.12;99449.34;1698554;84;21074;-66
2021/05/15 02:40:47;;;;;;;4.90;3.83;;;;;;;14.87;67.19;99448.46;1696011;84;20392;-65
2021/05/15 02:43:15;;;;;;;6.97;4.12;;;;;;;14.87;67.26;99454.52;1695023;84;21902;-66
2021/05/15 02:45:44;;;;;;;8.05;5.05;;;;;;;14.86;67.39;99455.61;1696052;83;21110;-64
2021/05/15 02:48:16;;;;;;;7.55;4.40;;;;;;;14.86;67.54;99456.98;1696056;84;21334;-64
2021/05/15 02:50:39;;;;;;;6.37;4.30;;;;;;;14.88;67.55;99463.09;1695526;84;21094;-65
2021/05/15 02:53:07;;;;;;;7.40;4.65;;;;;;;14.81;67.62;99464.62;1696058;83;21154;-65
2021/05/15 02:55:34;;;;;;;7.00;4.22;;;;;;;14.73;67.84;99472.47;1696194;83;21303;-65
2021/05/15 02:58:00;;;;;;;5.90;4.15;;;;;;;14.70;68.14;99479.31;1695950;84;21807;-65
2021/05/15 03:00:28;;;;;;;;;;;;;;;14.68;68.20;99481.48;1698700;84;21823;-65
2021/05/15 03:02:56;;;;;;;5.05;3.20;;;;;;;14.69;68.29;99483.16;1696033;84;20288;-63
2021/05/15 03:05:24;;;;;;;6.87;3.33;;;;;;;14.68;68.27;99485.61;1696025;84;21252;-66
2021/05/15 03:07:51;;;;;;;4.62;2.92;;;;;;;14.65;68.24;99479.22;1695920;84;21276;-64
2021/05/15 03:10:22;;;;;;;5.20;3.33;;;;;;;14.67;68.28;99490.83;1695991;84;21202;-63
2021/05/15 03:12:48;;;;;;;4.87;3.22;;;;;;;14.71;68.24;99491.17;1695964;84;21185;-64
2021/05/15 03:15:15;;;;;;;;;;;;;;;14.74;68.27;99487.92;1698612;84;21362;-64
2021/05/15 03:17:44;;;;;;;4.92;3.52;;;;;;;14.77;68.23;99490.19;1695991;84;20228;-64
2021/05/15 03:20:17;;;;;;;7.12;3.52;;;;;;;14.76;68.23;99486.59;1695996;84;21058;-64
2021/05/15 03:22:47;;;;;;;5.75;3.20;;;;;;;14.79;68.17;99495.75;1683015;83;21083;-64
2021/05/15 03:25:14;;;;;;;5.87;2.80;;;;;;;14.80;68.09;99499.34;1662988;86;21322;-64
2021/05/15 03:27:41;;;;;;;7.42;3.17;;;;;;;14.82;68.06;99496.63;1717188;83;21806;-65
2021/05/15 03:30:10;;;;;;;4.80;2.85;;;;;;;14.86;68.08;99495.05;1717138;83;21273;-63
2021/05/15 03:32:40;;;;;;;6.87;2.98;;;;;;;14.88;67.98;99481.85;1717156;83;21051;-65
2021/05/15 03:35:07;;;;;;;5.45;3.15;;;;;;;14.91;67.89;99478.59;1717107;83;21869;-65
2021/05/15 03:37:34;;;;;;;4.80;3.02;;;;;;;14.96;67.79;99483.40;1717297;83;21066;-65
2021/05/15 03:40:00;;;;;;;;;;;;;;;15.00;67.67;99491.47;1719666;83;21066;-65
2021/05/15 03:42:27;;;;;;;4.55;2.98;;;;;;;15.08;67.51;99488.84;1717090;83;20618;-64
2021/05/15 03:44:54;;;;;;;4.28;2.85;;;;;;;15.15;67.38;99497.25;1716973;82;21306;-65
2021/05/15 03:47:21;;;;;;;;;;;;;;;15.22;67.27;99495.71;1719808;83;21797;-66
2021/05/15 03:49:48;;;;;;;6.50;3.65;;;;;;;15.29;67.11;99495.00;1717182;83;20206;-64
2021/05/15 03:52:15;;;;;;;5.00;2.85;;;;;;;15.33;67.01;99498.93;1717056;83;22127;-65
2021/05/15 03:54:42;;;;;;;6.62;2.92;;;;;;;15.39;66.84;99502.61;1717141;83;21070;-65
2021/05/15 03:57:08;;;;;;;;;;;;;;;15.42;66.60;99505.70;1719711;83;21122;-65
2021/05/15 03:59:35;;;;;;;4.58;2.80;;;;;;;15.46;66.63;99509.64;1717038;83;20666;-65
2021/05/15 04:02:03;;;;;;;5.37;2.60;;;;;;;15.50;66.59;99512.19;1717072;83;21066;-64
2021/05/15 04:04:31;;;;;;;4.85;2.58;;;;;;;15.56;66.26;99508.96;1717082;83;21177;-65
2021/05/15 04:06:58;;;;;;;3.60;2.20;;;;;;;15.61;66.15;99513.25;1717065;83;21078;-65
2021/05/15 04:09:25;;;;;;;3.22;2.37;;;;;;;15.65;65.98;99521.32;1717152;83;21357;-65
2021/05/15 04:11:52;;;;;;;;;;;;;;;15.67;65.72;99520.52;1719759;83;21819;-63
2021/05/15 04:14:30;;;;;;;3.02;2.10;;;;;;;15.67;65.71;99521.06;1717074;83;20235;-64
2021/05/15 04:17:17;;;;;;;2.55;1.98;;;;;;;15.68;65.65;99514.45;1716767;83;21333;-64
2021/05/15 04:19:32;;;;;;;3.95;2.35;;;;;;;15.72;65.48;99521.14;1715030;83;21201;-66
2021/05/15 04:21:59;;;;;;;3.72;2.20;;;;;;;15.74;65.38;99523.95;1717093;83;21051;-68
2021/05/15 04:24:26;;;;;;;;;;;;;;;15.74;65.43;99521.73;1719742;83;21400;-65
2021/05/15 04:26:53;;;;;;;3.87;2.57;;;;;;;15.75;65.39;99522.02;1717462;83;20270;-65
2021/05/15 04:29:21;;;;;;;3.85;2.83;;;;;;;15.76;65.40;99523.69;1717146;82;21071;-65
2021/05/15 04:31:49;;;;;;;2.65;2.15;;;;;;;15.77;65.38;99530.34;1717201;83;21160;-65
2021/05/15 04:34:16;;;;;;;3.37;2.10;;;;;;;15.79;65.36;99528.71;1717397;82;21833;-66
2021/05/15 04:36:43;;;;;;;3.42;2.20;;;;;;;15.78;65.34;99523.73;1717179;83;21801;-66
2021/05/15 04:39:09;;;;;;;;;;;;;;;15.80;65.27;99524.31;1719648;82;21153;-66
2021/05/15 04:41:36;;;;;;;3.45;2.40;;;;;;;15.83;65.27;99533.48;1717184;83;20642;-65
2021/05/15 04:44:03;;;;;;;;;;;;;;;15.85;65.25;99533.22;1719640;82;21070;-65
2021/05/15 04:46:30;;;;;;;4.28;2.50;;;;;;;15.87;65.09;99536.57;1717429;83;20293;-64
2021/05/15 04:48:57;;;;;;;4.97;2.60;;;;;;;15.83;65.13;99539.55;1717052;83;21157;-66
2021/05/15 04:51:23;;;;;;;;;;;;;;;15.80;65.15;99535.91;1719776;83;21078;-65
2021/05/15 04:53:50;;;;;;;3.70;2.60;;;;;;;15.81;65.19;99537.58;1717352;83;20215;-66
2021/05/15 04:56:17;;;;;;;;;;;;;;;15.84;65.22;99535.70;1719735;83;21052;-63
2021/05/15 04:58:44;;;;;;;4.80;2.50;;;;;;;15.87;65.20;99542.09;1717112;83;20231;-67
2021/05/15 05:01:12;;;;;;;4.03;2.40;;;;;;;15.87;65.17;99537.95;1717240;83;21825;-64
2021/05/15 05:03:39;;;;;;;3.60;2.47;;;;;;;15.89;65.17;99550.96;1717397;83;21165;-65
2021/05/15 05:06:06;;;;;;;5.15;2.40;;;;;;;15.93;65.15;99551.30;1717077;83;21080;-65
2021/05/15 05:08:33;;;;;;;;;;;;;;;15.94;65.07;99546.89;1719716;83;21304;-65
2021/05/15 05:11:01;;;;;;;6.47;2.70;;;;;;;16.01;65.00;99555.00;1717176;81;20176;-63
2021/05/15 05:13:29;;;;;;;4.45;2.27;;;;;;;16.05;64.90;99556.17;1717067;83;21254;-65
2021/05/15 05:15:58;;;;;;;5.25;2.85;;;;;;;16.09;64.80;99560.09;1717067;83;21724;-65
2021/05/15 05:18:25;;;;;;;4.97;2.52;;;;;;;16.14;64.73;99563.77;1717212;83;21098;-65
2021/05/15 05:20:52;;;;;;;;;;;;;;;16.17;64.68;99562.42;1719715;83;21103;-65
2021/05/15 05:23:19;;;;;;;7.00;2.43;;;;;;;16.20;64.58;99577.66;1723414;83;20262;-67
2021/05/15 05:25:46;;;;;;;4.50;2.30;;;;;;;16.21;64.37;99564.13;1725061;83;21380;-65
2021/05/15 05:28:15;;;;;;;;;;;;;;;16.22;64.30;99572.17;1727612;83;21829;-65
2021/05/15 05:30:41;;;;;;;2.45;2.10;;;;;;;16.27;64.21;99570.89;1725088;83;20646;-66
2021/05/15 05:33:07;;;;;;;2.75;2.05;;;;;;;16.28;64.21;99575.88;1676831;83;21089;-66
2021/05/15 05:35:35;;;;;;;;;;;;;;;16.34;64.10;99575.69;1702940;83;21328;-66
2021/05/15 05:38:02;;;;;;;3.05;2.12;;;;;;;16.37;64.00;99568.81;1725180;83;20222;-65
2021/05/15 05:40:29;;;;;;;3.60;2.47;;;;;;;16.39;64.05;99569.39;1725476;83;21074;-64
2021/05/15 05:42:56;;;;;;;6.83;2.40;;;;;;;16.44;64.00;99576.38;1725009;83;21094;-64
2021/05/15 05:45:23;;;;;;;;;;;;;;;16.51;63.96;99573.41;1727705;83;21066;-65
2021/05/15 05:47:49;;;;;;;3.00;2.08;;;;;;;16.60;63.47;99581.00;1725157;83;20203;-67
2021/05/15 05:50:16;;;;;;;3.30;2.20;;;;;;;16.62;63.30;99577.44;1725004;83;21304;-66
2021/05/15 05:52:43;;;;;;;4.37;2.30;;;;;;;16.66;63.23;99579.17;1725108;83;21278;-65
2021/05/15 05:55:10;;;;;;;;;;;;;;;16.74;63.18;99585.09;1727549;83;21819;-65
2021/05/15 05:57:38;;;;;;;4.25;2.60;;;;;;;16.86;62.92;99592.41;1725319;83;20295;-66
2021/05/15 06:00:05;;;;;;;;;;;;;;;16.92;62.62;99590.86;1727704;83;21807;-64
2021/05/15 06:02:32;;;;;;;6.80;2.40;;;;;;;16.96;62.50;99591.18;1725286;83;20194;-66
2021/05/15 06:04:58;;;;;;;;;;;;;;;16.98;62.51;99588.44;1727704;83;21204;-65
2021/05/15 06:07:25;;;;;;;5.60;2.65;;;;;;;17.05;62.44;99589.63;1725157;83;20283;-65
2021/05/15 06:09:52;;;;;;;4.15;2.02;;;;;;;17.10;62.27;99593.28;1725893;83;21220;-67
2021/05/15 06:12:19;;;;;;;;;;;;;;;17.15;62.02;99595.27;1734800;83;21094;-65
2021/05/15 06:14:46;;;;;;;5.50;2.10;;;;;;;17.17;62.01;99600.00;1727615;83;20199;-65
2021/05/15 06:17:13;;;;;;;;;;;;;;;17.20;61.95;99598.09;1727746;83;21078;-65
2021/05/15 06:19:40;;;;;;;8.03;3.10;;;;;;;17.25;61.76;99598.70;1725398;83;20211;-65
2021/05/15 06:22:08;;;;;;;5.40;2.52;;;;;;;17.24;61.89;99593.70;1723984;83;21891;-64
2021/05/15 06:24:39;;;;;;;6.22;3.00;;;;;;;17.26;61.85;99598.44;1717089;83;21186;-66
2021/05/15 06:27:04;;;;;;;5.80;2.65;;;;;;;17.31;61.77;99602.64;1716706;83;21166;-66
2021/05/15 06:29:34;;;;;;;4.30;2.70;;;;;;;17.35;61.71;99596.86;1717101;83;21285;-65
2021/05/15 06:32:00;;;;;;;7.15;2.58;;;;;;;17.43;61.52;99606.08;1717123;82;21911;-65
2021/05/15 06:34:27;;;;;;;6.42;2.40;;;;;;;17.48;61.33;99603.07;1717048;82;21176;-65
2021/05/15 06:36:54;;;;;;;;;;;;;;;17.53;61.06;99607.28;1719694;83;21346;-65
2021/05/15 06:39:21;;;;;;;3.57;2.40;;;;;;;17.59;60.90;99606.26;1717384;83;20183;-65
2021/05/15 06:41:48;;;;;;;3.70;2.40;;;;;;;17.68;60.64;99615.23;1717127;83;21090;-64
2021/05/15 06:44:15;;;;;;;4.25;2.17;;;;;;;17.78;60.08;99612.27;1717064;83;21385;-66
2021/05/15 06:46:42;;;;;;;;;;;;;;;17.84;59.80;99611.21;1719876;83;21087;-65
2021/05/15 06:49:08;;;;;;;2.70;2.10;;;;;;;17.95;59.21;99620.73;1717157;83;20294;-66
2021/05/15 06:51:35;;;;;;;3.65;2.22;;;;;;;18.02;59.09;99614.41;1717153;83;21366;-65
2021/05/15 06:54:04;;;;;;;3.50;2.08;;;;;;;18.15;58.93;99616.44;1717126;83;21067;-65
2021/05/15 06:56:30;;;;;;;9.10;2.52;;;;;;;18.29;58.60;99613.52;1717047;83;21330;-65
2021/05/15 06:58:57;;;;;;;9.08;2.75;;;;;;;18.44;58.28;99615.55;1717099;83;21432;-66
2021/05/15 07:01:25;;;;;;;;;;;;;;;18.55;57.88;99619.50;1719791;83;21074;-65
2021/05/15 07:03:53;;;;;;;4.75;2.33;;;;;;;18.63;57.36;99625.12;1717021;83;20172;-67
2021/05/15 07:06:20;;;;;;;4.50;2.20;;;;;;;18.66;56.92;99614.86;1717207;83;21063;-66
2021/05/15 07:08:49;;;;;;;2.98;2.12;;;;;;;18.67;56.87;99622.92;1717214;83;21301;-65
2021/05/15 07:11:15;;;;;;;;;;;;;;;18.72;56.94;99626.83;1719345;83;21694;-64
2021/05/15 07:13:44;;;;;;;4.35;1.90;;;;;;;18.73;56.95;99624.33;1716007;82;20299;-67
2021/05/15 07:16:11;;;;;;;5.40;1.90;;;;;;;18.74;56.95;99621.28;1714567;83;21316;-64
2021/05/15 07:18:38;;;;;;;3.12;2.20;;;;;;;18.82;56.66;99629.09;1717109;83;21823;-64
2021/05/15 07:21:05;;;;;;;4.22;1.90;;;;;;;18.96;56.41;99626.13;1717098;83;21154;-66
2021/05/15 07:23:31;;;;;;;3.70;2.10;;;;;;;19.13;55.96;99624.52;1708981;83;21350;-65
2021/05/15 07:25:58;;;;;;;3.60;2.15;;;;;;;19.29;55.53;99626.79;1702934;84;21912;-65
2021/05/15 07:28:25;;;;;;;2.92;1.95;;;;;;;19.43;54.92;99620.16;1674280;85;21793;-65
2021/05/15 07:30:52;;;;;;;2.90;1.82;;;;;;;19.52;54.20;99625.48;1672887;85;21086;-66
2021/05/15 07:33:19;;;;;;;3.58;1.80;;;;;;;19.60;54.13;99622.19;1673013;85;21763;-66
2021/05/15 07:35:46;;;;;;;3.30;1.90;;;;;;;19.75;53.97;99631.93;1672832;85;21103;-66
2021/05/15 07:38:13;;;;;;;2.35;1.77;;;;;;;19.92;53.19;99635.27;1673181;85;21120;-65
2021/05/15 07:40:40;;;;;;;;;;;;;;;20.06;52.38;99630.55;1675344;85;21216;-66
2021/05/15 07:43:07;;;;;;;3.65;2.37;;;;;;;20.11;52.35;99636.10;1703115;84;20587;-65
2021/05/15 07:45:36;;;;;;;4.62;2.60;;;;;;;20.13;52.45;99631.09;1674276;85;21904;-66
2021/05/15 07:48:03;;;;;;;2.87;1.90;;;;;;;20.17;52.39;99633.63;1672863;85;21099;-65
2021/05/15 07:50:30;;;;;;;4.37;1.92;;;;;;;20.20;51.77;99628.89;1672904;85;21094;-66
2021/05/15 07:52:57;;;;;;;4.05;2.20;;;;;;;20.16;51.66;99632.80;1672657;85;21896;-65
2021/05/15 07:55:23;;;;;;;;;;;;;;;20.11;52.02;99628.59;1675316;85;21083;-65
2021/05/15 07:57:50;;;;;;;3.47;2.10;;;;;;;20.15;51.72;99626.08;1683599;84;20201;-64
2021/05/15 08:00:18;;;;;;;2.50;2.12;;;;;;;20.21;51.90;99630.56;1689400;84;21891;-66
2021/05/15 08:02:45;;;;;;;3.02;2.10;;;;;;;20.23;51.99;99636.68;1701755;83;21054;-67
2021/05/15 08:05:12;;;;;;;2.75;2.20;;;;;;;20.16;51.78;99629.17;1703071;83;21078;-67
2021/05/15 08:07:39;;;;;;;4.08;1.90;;;;;;;20.07;51.90;99632.21;1730511;83;21065;-65
2021/05/15 08:10:07;;;;;;;4.08;2.00;;;;;;;20.04;52.16;99634.16;1730377;83;21328;-69
2021/05/15 08:12:34;;;;;;;6.08;3.10;;;;;;;19.97;52.21;99641.39;1730514;83;21070;-64
2021/05/15 08:15:03;;;;;;;8.40;6.47;;;;;;;19.91;52.11;99634.99;1721852;83;21058;-68
2021/05/15 08:17:33;;;;;;;7.10;4.33;;;;;;;19.98;51.86;99635.27;1700253;83;21957;-62
2021/05/15 08:19:58;;;;;;;3.90;3.27;;;;;;;20.12;51.85;99626.09;1700128;84;21105;-67
2021/05/15 08:22:25;;;;;;;4.53;3.00;;;;;;;20.38;51.58;99635.83;1699241;84;21128;-64
2021/05/15 08:24:52;;;;;;;;;;;;;;;20.57;51.10;99641.10;1713408;83;21089;-65
2021/05/15 08:27:18;;;;;;;5.65;2.70;;;;;;;20.61;50.91;99633.02;1710978;83;20323;-64
2021/05/15 08:29:45;;;;;;;3.58;2.00;;;;;;;20.60;50.75;99635.53;1711220;83;21133;-61
2021/05/15 08:32:12;;;;;;;3.80;1.72;;;;;;;20.56;50.59;99634.70;1736561;82;21429;-62
2021/05/15 08:34:39;;;;;;;3.08;2.10;;;;;;;20.50;50.29;99642.78;1747242;82;21975;-64
2021/05/15 08:37:06;;;;;;;3.17;2.02;;;;;;;20.42;50.53;99642.52;1743986;82;21087;-60
2021/05/15 08:39:33;;;;;;;3.20;2.10;;;;;;;20.33;50.79;99645.02;1713133;83;21343;-60
2021/05/15 08:41:59;;;;;;;;;;;;;;;20.26;51.13;99640.29;1713573;83;21290;-60
2021/05/15 08:44:26;;;;;;;4.30;2.90;;;;;;;20.28;51.47;99649.75;1710978;83;20736;-60
2021/05/15 08:46:55;;;;;;;4.60;2.02;;;;;;;20.34;51.07;99642.51;1711361;83;21080;-61
2021/05/15 08:49:23;;;;;;;5.00;2.33;;;;;;;20.43;50.70;99640.86;1711195;83;21100;-62
2021/05/15 08:51:53;;;;;;;2.72;1.98;;;;;;;20.51;50.52;99633.88;1711078;83;21133;-63
2021/05/15 08:54:23;;;;;;;6.15;2.15;;;;;;;20.58;50.59;99633.86;1711082;83;21819;-64
2021/05/15 08:56:50;;;;;;;3.00;1.90;;;;;;;20.69;50.48;99644.97;1710791;82;21097;-63
2021/05/15 08:59:17;;;;;;;4.55;2.50;;;;;;;20.71;50.26;99640.78;1731285;82;21054;-60
2021/05/15 09:01:44;;;;;;;6.70;2.65;;;;;;;20.69;50.34;99639.40;1719897;82;21090;-61
2021/05/15 09:04:11;;;;;;;3.83;2.08;;;;;;;20.71;50.36;99646.91;1718833;82;21268;-60
2021/05/15 09:06:41;;;;;;;3.08;2.10;;;;;;;20.72;50.23;99644.41;1723195;82;21178;-62
2021/05/15 09:09:09;;;;;;;2.08;1.70;;;;;;;20.73;50.23;99646.06;1716858;83;21085;-61
2021/05/15 09:11:38;;;;;;;4.92;2.10;;;;;;;20.77;50.06;99641.04;1711417;82;21061;-61
2021/05/15 09:14:15;;;;;;;4.28;1.45;;;;;;;20.88;49.86;99648.28;1711200;83;21084;-61
2021/05/15 09:16:55;;;;;;;3.20;1.62;;;;;;;21.00;49.01;99649.91;1711408;83;21115;-64
2021/05/15 09:19:25;;;;;;;2.72;1.52;;;;;;;21.11;48.45;99642.61;1711223;83;21116;-65
2021/05/15 09:22:04;;;;;;;4.03;1.75;;;;;;;21.24;48.13;99637.56;1711387;83;21203;-66
2021/05/15 09:24:36;;;;;;;3.42;2.10;;;;;;;21.35;47.75;99640.01;1711075;83;21141;-61
2021/05/15 09:27:06;;;;;;;5.25;1.90;;;;;;;21.37;47.53;99637.77;1711094;83;21426;-64
2021/05/15 09:29:48;;;;;;;3.45;1.75;;;;;;;21.34;47.67;99641.69;1711143;83;21113;-61
2021/05/15 09:32:31;;;;;;;2.45;1.60;;;;;;;21.30;47.63;99641.99;1711130;83;21100;-65
2021/05/15 09:34:59;;;;;;;2.55;1.37;;;;;;;21.26;47.34;99652.05;1711176;83;21065;-65
2021/05/15 09:37:40;;;;;;;3.65;1.60;;;;;;;21.17;47.20;99653.17;1711179;83;21084;-63
2021/05/15 09:40:19;;;;;;;3.00;1.37;;;;;;;21.08;47.14;99647.36;1711314;83;21420;-61
2021/05/15 09:42:54;;;;;;;2.92;1.47;;;;;;;21.00;47.48;99656.31;1707322;83;21117;-63
2021/05/15 09:45:33;;;;;;;4.67;1.60;;;;;;;20.93;47.66;99663.30;1711398;83;21112;-60
2021/05/15 09:48:09;;;;;;;4.00;1.47;;;;;;;20.85;47.90;99664.72;1711276;83;21199;-65
2021/05/15 09:50:39;;;;;;;;;;;;;;;20.82;48.01;99668.91;1713915;83;21096;-64
2021/05/15 09:53:15;;;;;;;3.33;1.45;;;;;;;20.83;47.61;99663.61;1714152;82;20247;-64
2021/05/15 09:55:50;;;;;;;1.98;1.50;;;;;;;20.81;47.72;99659.44;1717186;82;21083;-65
2021/05/15 09:58:17;;;;;;;2.83;1.82;;;;;;;20.76;49.10;99670.56;1717019;83;21333;-66
2021/05/15 10:00:51;;;;;;;2.35;1.85;;;;;;;20.71;51.21;99672.80;1716988;83;21708;-67
2021/05/15 10:03:22;;;;;;;4.12;1.95;;;;;;;20.65;52.43;99670.31;1717034;82;21198;-65
2021/05/15 10:06:08;;;;;;;3.95;2.30;;;;;;;20.60;53.59;99671.71;1726005;82;21142;-65
2021/05/15 10:08:37;;;;;;;4.87;2.47;;;;;;;20.55;54.81;99676.17;1716964;83;21081;-63
2021/05/15 10:11:05;;;;;;;3.85;2.30;;;;;;;20.46;55.56;99669.52;1717356;83;21185;-64
2021/05/15 10:13:35;;;;;;;2.83;1.40;;;;;;;20.44;55.69;99678.70;1717115;83;21083;-64
2021/05/15 10:16:05;;;;;;;1.62;1.40;;;;;;;20.37;52.58;99684.23;1717134;83;21035;-64
2021/05/15 10:18:34;;;;;;;1.52;1.10;;;;;;;20.20;51.02;99694.27;1716489;83;21102;-65
2021/05/15 10:21:02;;;;;;;4.35;1.80;;;;;;;20.06;51.43;99700.91;1717102;83;21062;-66
2021/05/15 10:23:37;;;;;;;3.12;1.62;;;;;;;19.89;51.73;99695.61;1717151;83;21331;-65
2021/05/15 10:26:19;;;;;;;1.98;1.45;;;;;;;19.80;53.30;99691.70;1691900;83;21268;-64
2021/05/15 10:29:04;;;;;;;2.52;1.60;;;;;;;19.83;53.91;99693.93;1717201;83;21296;-64
2021/05/15 10:31:41;;;;;;;3.12;1.95;;;;;;;19.88;54.45;99696.72;1714060;82;21054;-64
2021/05/15 10:34:10;;;;;;;2.95;2.22;;;;;;;19.93;54.57;99689.77;1691021;83;21428;-68
2021/05/15 10:36:45;;;;;;;3.33;2.10;;;;;;;20.05;57.87;99689.50;1713372;82;21772;-77
2021/05/15 10:39:31;;;;;;;4.70;2.30;;;;;;;20.29;58.71;99691.20;1716245;83;21330;-65
2021/05/15 10:42:01;;;;;;;2.00;1.70;;;;;;;20.44;56.44;99685.66;1716670;83;22089;-61
2021/05/15 10:44:45;;;;;;;3.80;1.80;;;;;;;20.53;55.18;99685.92;1704315;82;21070;-70
2021/05/15 10:47:13;;;;;;;2.25;2.00;;;;;;;20.55;54.75;99682.30;1714628;81;21318;-67
2021/05/15 10:49:45;;;;;;;2.10;1.70;;;;;;;20.60;54.92;99685.62;1701870;83;21143;-64
2021/05/15 10:52:16;;;;;;;2.60;1.70;;;;;;;20.66;54.80;99678.94;1716940;83;21090;-62
2021/05/15 10:54:51;;;;;;;3.22;2.00;;;;;;;20.76;55.72;99691.44;1715191;83;21362;-62
2021/05/15 10:57:23;;;;;;;3.02;2.08;;;;;;;20.82;54.43;99689.78;1709377;82;21189;-63
2021/05/15 10:59:59;;;;;;;4.55;1.90;;;;;;;20.79;53.47;99688.09;1700472;83;21428;-61
2021/05/15 11:02:34;;;;;;;3.05;2.65;;;;;;;20.70;52.43;99698.97;1707461;82;21324;-61
2021/05/15 11:05:17;;;;;;;2.77;1.65;;;;;;;20.58;52.38;99747.15;1708724;82;21060;-61
2021/05/15 11:07:44;;;;;;;4.45;1.65;;;;;;;20.40;52.26;99761.62;1717073;83;21074;-63
2021/05/15 11:10:15;;;;;;;6.00;1.80;;;;;;;20.02;53.20;99753.19;1705657;83;21439;-61
2021/05/15 11:12:45;;;;;;;5.95;1.67;;;;;;;19.60;56.28;99736.13;1704556;83;21047;-60
2021/05/15 11:15:15;;;;;;;5.53;1.60;;;;;;;19.26;57.49;99734.28;1705683;83;21070;-64
2021/05/15 11:17:43;;;;;;;4.65;2.75;;;;;;;18.95;58.93;99727.73;1710208;83;21069;-64
2021/05/15 11:20:14;;;;;;;3.40;1.50;;;;;;;18.62;59.89;99740.83;1710035;83;21781;-64
2021/05/15 11:22:53;;;;;;;2.22;1.12;;;;;;;18.45;61.50;99736.50;1688310;85;21308;-66
2021/05/15 11:25:29;;;;;;;4.90;1.32;;;;;;;18.35;61.72;99731.16;1706697;83;21248;-64
2021/05/15 11:28:04;;;;;;;4.35;1.40;;;;;;;18.37;61.68;99729.50;1690418;83;21221;-64
2021/05/15 11:30:44;;;;;;;5.87;1.75;;;;;;;18.54;64.21;99727.96;1715952;83;21953;-63
2021/05/15 11:33:13;;;;;;;3.37;1.07;;;;;;;18.80;64.82;99731.22;1706832;82;21101;-63
2021/05/15 11:35:49;;;;;;;14.15;1.30;;;;;;;19.04;64.07;99723.89;1691020;83;21102;-63
2021/05/15 11:38:23;;;;;;;4.15;1.20;;;;;;;19.23;63.00;99721.77;1717046;83;21712;-64
2021/05/15 11:40:57;;;;;;;2.62;1.37;;;;;;;19.46;62.55;99714.91;1713422;82;21074;-61
2021/05/15 11:43:28;;;;;;;3.77;1.10;;;;;;;19.75;63.10;99714.48;1714505;83;21070;-64
2021/05/15 11:45:56;;;;;;;3.15;1.37;;;;;;;20.04;62.04;99709.25;1701810;82;21211;-65
2021/05/15 11:48:27;;;;;;;1.57;1.05;;;;;;;20.33;61.47;99709.01;1717073;82;21105;-63